Latest Weather Observations for Carters Bore

IDQ60801

Issued at 9:32 pm EST Monday 29 May 2017 (issued every 30 minutes, with the page automatically refreshed every 10 minutes)

About weather observations | Map of weather stations | Latest weather observations for QLD | Other Formats
Station Details ID: 037053 Name: CARTERS BORE Lat: -20.94 Lon: 139.30 Height: 396.0 m
Data from the previous 72 hours. | See also: Recent months at Carters Bore
Date/Time
EST
Temp
°C
App
Temp
°C
Dew
Point
°C
Rel
Hum
%
Delta-T
°C
Wind Press
QNH
hPa
Press
MSL
hPa
Rain since
9am
mm
Dir  Spd
km/h
Gust
km/h
Spd
kts
Gust
kts
29/09:30pm 16.4 13.1 2.4 39 6.4 S 9 13 5 7 - - 0.0
29/09:00pm 17.1 13.8 2.7 38 6.7 S 9 15 5 8 - - 0.0
29/08:30pm 16.1 13.4 2.5 40 6.3 SSE 6 9 3 5 - - 0.0
29/08:00pm 17.1 14.3 1.9 36 7.0 SSE 6 7 3 4 - - 0.0
29/07:30pm 17.7 14.9 2.1 35 7.2 SSE 6 6 3 3 - - 0.0
29/07:00pm 17.8 15.3 1.7 34 7.4 SSE 4 7 2 4 - - 0.0
29/06:30pm 18.5 15.5 1.9 33 7.7 SSE 7 9 4 5 - - 0.0
29/06:00pm 18.9 15.1 1.9 32 7.9 SE 11 15 6 8 - - 0.0
29/05:30pm 19.2 15.4 1.7 31 8.1 SE 11 20 6 11 - - 0.0
29/05:00pm 19.6 15.1 2.0 31 8.2 S 15 19 8 10 - - 0.0
29/04:30pm 19.9 15.3 1.4 29 8.6 S 15 20 8 11 - - 0.0
29/04:00pm 20.2 15.9 1.1 28 8.8 SSE 13 19 7 10 - - 0.0
29/03:30pm 20.4 16.4 0.8 27 9.0 SSE 11 19 6 10 - - 0.0
29/03:00pm 20.6 16.3 1.0 27 9.1 SSE 13 20 7 11 - - 0.0
29/02:30pm 20.4 16.1 0.8 27 9.0 SSE 13 20 7 11 - - 0.0
29/02:00pm 20.7 16.4 1.1 27 9.1 SSE 13 24 7 13 - - 0.0
29/01:30pm 20.5 15.1 1.4 28 8.9 SSE 19 26 10 14 - - 0.0
29/01:00pm 19.9 15.3 1.8 30 8.5 SSE 15 22 8 12 - - 0.0
29/12:30pm 19.3 14.0 1.8 31 8.1 SSE 19 26 10 14 - - 0.0
29/12:00pm 19.3 14.7 1.8 31 8.1 SSE 15 22 8 12 - - 0.0
29/11:30am 19.0 13.5 2.0 32 7.9 SSE 20 26 11 14 - - 0.0
29/11:00am 18.3 13.1 2.6 35 7.4 SSE 19 28 10 15 - - 0.0
29/10:30am 18.0 12.8 2.3 35 7.3 SSE 19 30 10 16 - - 0.0
29/10:00am 17.6 12.3 3.1 38 6.8 SSE 20 30 11 16 - - 0.0
29/09:30am 17.5 11.4 3.0 38 6.8 SE 24 35 13 19 - - 0.0
29/09:00am 16.7 10.0 3.4 41 6.3 SE 28 39 15 21 - - 0.0
29/08:30am 16.2 9.7 2.9 41 6.2 SE 26 33 14 18 - - 0.0
29/08:00am 16.2 10.4 2.2 39 6.4 SSE 22 33 12 18 - - 0.0
29/07:30am 16.6 10.6 1.1 35 7.0 SSE 22 32 12 17 - - 0.0
29/07:00am 17.5 11.3 -0.2 30 7.8 SSE 22 33 12 18 - - 0.0
29/06:30am 18.5 12.9 -0.3 28 8.3 SE 19 26 10 14 - - 0.0
29/06:00am 18.7 13.0 -0.7 27 8.5 SE 19 26 10 14 - - 0.0
29/05:30am 18.8 13.4 -1.6 25 8.8 SSE 17 28 9 15 - - 0.0
29/05:00am 19.1 13.0 -2.5 23 9.2 SE 20 28 11 15 - - 0.0
29/04:30am 19.2 13.3 -2.4 23 9.2 SE 19 28 10 15 - - 0.0
29/04:00am 19.2 13.4 -1.8 24 9.1 SE 19 26 10 14 - - 0.0
29/03:30am 19.3 13.9 -1.2 25 9.0 SE 17 26 9 14 - - 0.0
29/03:00am 19.4 14.0 -1.1 25 9.0 SSE 17 32 9 17 - - 0.0
29/02:30am 19.7 14.6 -2.0 23 9.4 SSE 15 24 8 13 - - 0.0
29/02:00am 20.3 14.3 -3.4 20 10.0 SSE 19 28 10 15 - - 0.0
29/01:30am 20.5 15.2 -3.9 19 10.2 SSE 15 24 8 13 - - 0.0
29/01:00am 20.5 15.7 -2.5 21 9.9 SSE 13 20 7 11 - - 0.0
29/12:30am 20.8 15.7 -1.7 22 9.9 SSE 15 19 8 10 - - 0.0
29/12:00am 21.1 16.5 -1.4 22 10.0 SSE 13 19 7 10 - - 0.0
 
Date/Time
EST
Temp
°C
App
Temp
°C
Dew
Point
°C
Rel
Hum
%
Delta-T
°C
Wind Press
QNH
hPa
Press
MSL
hPa
Rain since
9am
mm
Dir  Spd
km/h
Gust
km/h
Spd
kts
Gust
kts
28/11:30pm 21.3 16.0 -0.6 23 9.9 SSE 17 24 9 13 - - 0.0
28/11:00pm 21.3 16.8 -0.6 23 9.9 SSE 13 19 7 10 - - 0.0
28/10:30pm 20.8 16.7 -0.5 24 9.6 S 11 22 6 12 - - 0.0
28/10:00pm 20.9 16.9 0.2 25 9.4 S 11 15 6 8 - - 0.0
28/09:30pm 21.1 17.2 0.9 26 9.4 S 11 15 6 8 - - 0.0
28/09:00pm 21.6 17.6 0.8 25 9.7 S 11 13 6 7 - - 0.0
28/08:30pm 21.8 18.2 0.4 24 9.9 S 9 13 5 7 - - 0.0
28/08:00pm 22.0 18.3 -0.1 23 10.1 SSE 9 11 5 6 - - 0.0
28/07:30pm 22.6 19.3 -0.2 22 10.5 S 7 11 4 6 - - 0.0
28/07:00pm 24.2 20.5 -0.2 20 11.3 S 9 13 5 7 - - 0.0
28/06:30pm 26.0 21.9 -0.1 18 12.3 S 11 17 6 9 - - 0.0
28/06:00pm 27.1 21.8 -0.9 16 13.1 S 17 26 9 14 - - 0.0
28/05:30pm 28.0 23.0 -1.0 15 13.7 S 15 26 8 14 - - 0.0
28/05:00pm 28.6 22.9 -0.5 15 13.9 SSW 19 30 10 16 - - 0.0
28/04:30pm 29.3 23.7 0.0 15 14.2 SSW 19 28 10 15 - - 0.0
28/04:00pm 29.8 24.6 0.4 15 14.4 S 17 26 9 14 - - 0.0
28/03:30pm 29.5 24.1 1.1 16 14.0 S 19 28 10 15 - - 0.0
28/03:00pm 30.0 25.0 1.5 16 14.2 S 17 30 9 16 - - 0.0
28/02:30pm 30.1 25.9 1.5 16 14.3 SSW 13 28 7 15 - - 0.0
28/02:00pm 30.1 25.5 1.5 16 14.3 SE 15 24 8 13 - - 0.0
28/01:30pm 29.6 25.5 2.0 17 13.9 SSE 13 26 7 14 - - 0.0
28/01:00pm 30.2 26.1 2.5 17 14.1 S 13 28 7 15 - - 0.0
28/12:30pm 29.0 24.4 1.5 17 13.6 S 15 24 8 13 - - 0.0
28/12:00pm 29.3 25.1 1.7 17 13.8 SSE 13 20 7 11 - - 0.0
28/11:30am 28.5 24.3 1.9 18 13.2 SSE 13 28 7 15 - - 0.0
28/11:00am 28.2 23.9 0.9 17 13.3 SSE 13 20 7 11 - - 0.0
28/10:30am 27.7 23.7 0.5 17 13.1 SE 11 17 6 9 - - 0.0
28/10:00am 27.0 22.8 -0.9 16 13.1 ESE 11 17 6 9 - - 0.0
28/09:30am 25.5 21.5 0.2 19 12.0 ESE 11 17 6 9 - - 0.0
28/09:00am 23.8 20.1 0.2 21 11.0 E 9 15 5 8 - - 0.0
28/08:30am 23.0 19.9 0.2 22 10.6 E 6 13 3 7 - - 0.0
28/08:00am 21.4 18.3 0.0 24 9.8 E 6 13 3 7 - - 0.0
28/07:30am 18.0 15.2 -0.3 29 8.1 ENE 4 6 2 3 - - 0.0
28/07:00am 18.2 15.4 -0.1 29 8.1 E 4 9 2 5 - - 0.0
28/06:30am 20.1 16.9 0.5 27 8.9 ESE 7 9 4 5 - - 0.0
28/06:00am 17.9 14.6 0.1 30 7.9 ENE 7 9 4 5 - - 0.0
28/05:30am 17.7 14.6 -0.1 30 7.9 ENE 6 9 3 5 - - 0.0
28/05:00am 17.9 14.5 -0.4 29 8.0 ENE 7 11 4 6 - - 0.0
28/04:30am 20.7 16.6 0.0 25 9.4 E 11 17 6 9 - - 0.0
28/04:00am 18.0 14.8 0.6 31 7.8 ENE 7 11 4 6 - - 0.0
28/03:30am 16.5 14.4 -0.7 31 7.4 CALM 0 4 0 2 - - 0.0
28/03:00am 20.1 16.5 0.5 27 8.9 ESE 9 13 5 7 - - 0.0
28/02:30am 20.1 16.4 0.0 26 9.1 ESE 9 13 5 7 - - 0.0
28/02:00am 20.2 16.8 -0.4 25 9.2 ESE 7 13 4 7 - - 0.0
28/01:30am 21.1 17.4 -0.2 24 9.7 ESE 9 15 5 8 - - 0.0
28/01:00am 21.6 17.5 -0.4 23 10.0 SE 11 15 6 8 - - 0.0
28/12:30am 21.8 17.7 -0.2 23 10.0 SE 11 17 6 9 - - 0.0
28/12:00am 21.2 17.8 -0.7 23 9.8 SE 7 13 4 7 - - 0.0
 
Date/Time
EST
Temp
°C
App
Temp
°C
Dew
Point
°C
Rel
Hum
%
Delta-T
°C
Wind Press
QNH
hPa
Press
MSL
hPa
Rain since
9am
mm
Dir  Spd
km/h
Gust
km/h
Spd
kts
Gust
kts
27/11:30pm 22.4 18.3 -0.3 22 10.4 SE 11 17 6 9 - - 0.0
27/11:00pm 22.3 18.2 -0.4 22 10.4 SE 11 17 6 9 - - 0.0
27/10:30pm 21.0 17.3 -0.3 24 9.6 SE 9 11 5 6 - - 0.0
27/10:00pm 20.4 17.5 -0.8 24 9.4 SE 4 7 2 4 - - 0.0
27/09:30pm 21.7 18.3 -0.3 23 10.0 SE 7 11 4 6 - - 0.0
27/09:00pm 22.4 18.9 -1.0 21 10.6 SE 7 9 4 5 - - 0.0
27/08:30pm 23.9 20.1 -0.4 20 11.2 SE 9 13 5 7 - - 0.0
27/08:00pm 24.3 20.5 -0.8 19 11.5 SE 9 13 5 7 - - 0.0
27/07:30pm 23.9 20.4 -1.1 19 11.4 SE 7 9 4 5 - - 0.0
27/07:00pm 24.8 21.0 -1.1 18 11.9 SE 9 11 5 6 - - 0.0
27/06:30pm 25.8 22.0 -1.1 17 12.4 SSE 9 13 5 7 - - 0.0
27/06:00pm 27.2 23.3 -1.7 15 13.4 SSE 9 17 5 9 - - 0.0
27/05:30pm 28.2 23.5 -1.8 14 14.0 SSE 13 19 7 10 - - 0.0
27/05:00pm 28.8 23.5 -3.4 12 14.6 SE 15 19 8 10 - - 0.0
27/04:30pm 29.2 24.1 -2.0 13 14.6 SSE 15 20 8 11 - - 0.0
27/04:00pm 29.6 24.5 -1.7 13 14.7 SSE 15 20 8 11 - - 0.0
27/03:30pm 29.5 24.8 -1.8 13 14.7 SSE 13 22 7 12 - - 0.0
27/03:00pm 29.3 24.4 -3.0 12 14.8 SSE 13 22 7 12 - - 0.0
27/02:30pm 29.2 24.0 -3.1 12 14.8 SSE 15 26 8 14 - - 0.0
27/02:00pm 29.6 24.6 -3.9 11 15.2 S 13 22 7 12 - - 0.0
27/01:30pm 28.8 24.1 -4.6 11 14.9 SSE 11 20 6 11 - - 0.0
27/01:00pm 29.1 24.9 -4.3 11 15.0 SE 9 20 5 11 - - 0.0
27/12:30pm 27.9 23.3 -4.1 12 14.3 SE 11 20 6 11 - - 0.0
27/12:00pm 27.5 22.9 -4.4 12 14.1 ESE 11 17 6 9 - - 0.0
27/11:30am 26.8 22.2 -3.9 13 13.6 ESE 11 19 6 10 - - 0.0
27/11:00am 25.7 20.8 -3.8 14 13.0 ESE 13 19 7 10 - - 0.0
27/10:30am 24.4 19.4 -1.4 18 11.7 E 15 20 8 11 - - 0.0
27/10:00am 23.3 18.7 -0.9 20 11.0 E 13 22 7 12 - - 0.0
27/09:30am 22.1 17.6 -0.6 22 10.3 ESE 13 22 7 12 - - 0.0
27/09:00am 20.4 15.5 -0.3 25 9.3 ESE 15 26 8 14 - - 0.0
27/08:30am 19.2 14.6 -0.7 26 8.8 ESE 13 19 7 10 - - 0.0
27/08:00am 17.3 14.5 -0.4 30 7.7 E 4 7 2 4 - - 0.0
27/07:30am 15.6 12.7 -1.4 31 7.2 E 4 6 2 3 - - 0.0
27/07:00am 17.3 13.2 -0.4 30 7.7 E 11 17 6 9 - - 0.0
27/06:30am 14.5 11.5 -1.6 33 6.7 NNE 4 6 2 3 - - 0.0
27/06:00am 14.2 11.5 -2.7 31 6.8 ESE 2 6 1 3 - - 0.0
27/05:30am 14.8 12.4 -3.0 29 7.2 CALM 0 2 0 1 - - 0.0
27/05:00am 16.1 13.0 -2.4 28 7.7 SSE 4 6 2 3 - - 0.0
27/04:30am 16.6 13.5 -3.0 26 8.1 SSE 4 6 2 3 - - 0.0
27/04:00am 17.6 14.0 -2.1 26 8.3 SE 7 11 4 6 - - 0.0
27/03:30am 15.4 12.6 -3.0 28 7.5 SSE 2 4 1 2 - - 0.0
27/03:00am 15.3 12.8 -3.6 27 7.6 CALM 0 0 0 0 - - 0.0
27/02:30am 15.6 13.1 -3.8 26 7.8 CALM 0 0 0 0 - - 0.0
27/02:00am 16.6 14.1 -4.0 24 8.3 CALM 0 4 0 2 - - 0.0
27/01:30am 16.7 13.8 -4.5 23 8.5 ESE 2 4 1 2 - - 0.0
27/01:00am 18.1 14.3 -3.9 22 9.0 SSE 7 9 4 5 - - 0.0
27/12:30am 19.0 14.8 -3.8 21 9.4 SSE 9 11 5 6 - - 0.0
27/12:00am 19.6 15.0 -3.9 20 9.8 SSE 11 15 6 8 - - 0.0
 
Date/Time
EST
Temp
°C
App
Temp
°C
Dew
Point
°C
Rel
Hum
%
Delta-T
°C
Wind Press
QNH
hPa
Press
MSL
hPa
Rain since
9am
mm
Dir  Spd
km/h
Gust
km/h
Spd
kts
Gust
kts
26/11:30pm 20.0 15.8 -4.3 19 10.1 SSE 9 13 5 7 - - 0.0
26/11:00pm 19.9 16.0 -5.1 18 10.2 SSE 7 11 4 6 - - 0.0
26/10:30pm 20.7 16.0 -5.2 17 10.6 S 11 15 6 8 - - 0.0
26/10:00pm 20.8 16.5 -5.1 17 10.6 SSE 9 15 5 8 - - 0.0

Other Formats:

Comma delimited format used in spreadsheet applications
http://www.bom.gov.au/fwo/IDQ60801/IDQ60801.94347.axf

JavaScript Object Notation format (JSON) in row-major order
http://www.bom.gov.au/fwo/IDQ60801/IDQ60801.94347.json